sensor_id;sensor_type;location;lat;lon;timestamp;P1;durP1;ratioP1;P2;durP2;ratioP2
38224;SDS011;24025;48.138;11.428;2023-04-15T00:01:26;3.47;;;1.45;;
38224;SDS011;24025;48.138;11.428;2023-04-15T00:03:58;4.85;;;1.98;;
38224;SDS011;24025;48.138;11.428;2023-04-15T00:06:29;3.97;;;1.77;;
38224;SDS011;24025;48.138;11.428;2023-04-15T00:09:01;8.30;;;2.00;;
38224;SDS011;24025;48.138;11.428;2023-04-15T00:11:34;6.15;;;1.85;;
38224;SDS011;24025;48.138;11.428;2023-04-15T00:14:05;3.05;;;1.40;;
38224;SDS011;24025;48.138;11.428;2023-04-15T00:16:37;4.90;;;1.55;;
38224;SDS011;24025;48.138;11.428;2023-04-15T00:19:09;10.10;;;3.92;;
38224;SDS011;24025;48.138;11.428;2023-04-15T00:21:41;5.60;;;3.45;;
38224;SDS011;24025;48.138;11.428;2023-04-15T00:24:12;6.83;;;4.50;;
38224;SDS011;24025;48.138;11.428;2023-04-15T00:26:44;4.70;;;2.27;;
38224;SDS011;24025;48.138;11.428;2023-04-15T00:29:15;8.97;;;2.37;;
38224;SDS011;24025;48.138;11.428;2023-04-15T00:31:47;7.07;;;3.00;;
38224;SDS011;24025;48.138;11.428;2023-04-15T00:34:18;5.80;;;1.50;;
38224;SDS011;24025;48.138;11.428;2023-04-15T00:36:50;4.20;;;1.50;;
38224;SDS011;24025;48.138;11.428;2023-04-15T00:39:22;4.90;;;1.85;;
38224;SDS011;24025;48.138;11.428;2023-04-15T00:41:55;4.68;;;1.83;;
38224;SDS011;24025;48.138;11.428;2023-04-15T00:44:27;5.35;;;2.20;;
38224;SDS011;24025;48.138;11.428;2023-04-15T00:46:59;5.10;;;1.90;;
38224;SDS011;24025;48.138;11.428;2023-04-15T00:49:31;2.17;;;1.70;;
38224;SDS011;24025;48.138;11.428;2023-04-15T00:52:03;8.38;;;2.17;;
38224;SDS011;24025;48.138;11.428;2023-04-15T00:54:34;3.03;;;1.50;;
38224;SDS011;24025;48.138;11.428;2023-04-15T00:57:06;7.25;;;1.80;;
38224;SDS011;24025;48.138;11.428;2023-04-15T00:59:38;7.87;;;2.10;;
38224;SDS011;24025;48.138;11.428;2023-04-15T01:02:09;5.80;;;1.90;;
38224;SDS011;24025;48.138;11.428;2023-04-15T01:04:41;4.53;;;1.80;;
38224;SDS011;24025;48.138;11.428;2023-04-15T01:07:13;5.07;;;1.40;;
38224;SDS011;24025;48.138;11.428;2023-04-15T01:09:44;5.70;;;2.53;;
38224;SDS011;24025;48.138;11.428;2023-04-15T01:12:16;3.83;;;1.50;;
38224;SDS011;24025;48.138;11.428;2023-04-15T01:14:50;2.97;;;1.27;;
38224;SDS011;24025;48.138;11.428;2023-04-15T01:17:23;3.47;;;1.50;;
38224;SDS011;24025;48.138;11.428;2023-04-15T01:19:55;8.20;;;1.65;;
38224;SDS011;24025;48.138;11.428;2023-04-15T01:25:00;3.53;;;1.73;;
38224;SDS011;24025;48.138;11.428;2023-04-15T01:27:39;5.78;;;1.52;;
38224;SDS011;24025;48.138;11.428;2023-04-15T01:30:12;6.00;;;1.55;;
38224;SDS011;24025;48.138;11.428;2023-04-15T01:32:44;6.15;;;1.30;;
38224;SDS011;24025;48.138;11.428;2023-04-15T01:35:15;3.47;;;1.70;;
38224;SDS011;24025;48.138;11.428;2023-04-15T01:37:47;2.75;;;1.40;;
38224;SDS011;24025;48.138;11.428;2023-04-15T01:40:19;6.75;;;1.73;;
38224;SDS011;24025;48.138;11.428;2023-04-15T01:42:51;5.30;;;1.65;;
38224;SDS011;24025;48.138;11.428;2023-04-15T01:45:23;5.87;;;2.10;;
38224;SDS011;24025;48.138;11.428;2023-04-15T01:47:54;3.17;;;1.70;;
38224;SDS011;24025;48.138;11.428;2023-04-15T01:50:26;6.72;;;1.88;;
38224;SDS011;24025;48.138;11.428;2023-04-15T01:52:58;4.68;;;1.88;;
38224;SDS011;24025;48.138;11.428;2023-04-15T01:55:29;5.93;;;1.67;;
38224;SDS011;24025;48.138;11.428;2023-04-15T01:58:02;5.07;;;1.98;;
38224;SDS011;24025;48.138;11.428;2023-04-15T02:00:33;5.63;;;2.13;;
38224;SDS011;24025;48.138;11.428;2023-04-15T02:03:05;4.82;;;1.77;;
38224;SDS011;24025;48.138;11.428;2023-04-15T02:05:37;4.55;;;2.00;;
38224;SDS011;24025;48.138;11.428;2023-04-15T02:08:08;2.83;;;1.60;;
38224;SDS011;24025;48.138;11.428;2023-04-15T02:10:40;4.63;;;1.67;;
38224;SDS011;24025;48.138;11.428;2023-04-15T02:13:11;4.03;;;1.13;;
38224;SDS011;24025;48.138;11.428;2023-04-15T02:15:47;3.60;;;1.58;;
38224;SDS011;24025;48.138;11.428;2023-04-15T02:18:19;3.33;;;1.35;;
38224;SDS011;24025;48.138;11.428;2023-04-15T02:20:53;3.73;;;1.93;;
38224;SDS011;24025;48.138;11.428;2023-04-15T02:23:26;6.13;;;1.80;;
38224;SDS011;24025;48.138;11.428;2023-04-15T02:25:58;3.17;;;1.83;;
38224;SDS011;24025;48.138;11.428;2023-04-15T02:28:30;4.13;;;1.67;;
38224;SDS011;24025;48.138;11.428;2023-04-15T02:31:05;4.40;;;2.00;;
38224;SDS011;24025;48.138;11.428;2023-04-15T02:33:37;7.20;;;1.92;;
38224;SDS011;24025;48.138;11.428;2023-04-15T02:36:08;4.65;;;1.52;;
38224;SDS011;24025;48.138;11.428;2023-04-15T02:38:41;4.25;;;1.65;;
38224;SDS011;24025;48.138;11.428;2023-04-15T02:41:13;10.85;;;2.00;;
38224;SDS011;24025;48.138;11.428;2023-04-15T02:43:45;4.88;;;1.60;;
38224;SDS011;24025;48.138;11.428;2023-04-15T02:46:16;6.43;;;1.70;;
38224;SDS011;24025;48.138;11.428;2023-04-15T02:48:48;5.95;;;2.03;;
38224;SDS011;24025;48.138;11.428;2023-04-15T02:51:20;2.25;;;1.40;;
38224;SDS011;24025;48.138;11.428;2023-04-15T02:53:52;4.93;;;1.60;;
38224;SDS011;24025;48.138;11.428;2023-04-15T02:56:24;5.93;;;1.70;;
38224;SDS011;24025;48.138;11.428;2023-04-15T02:58:56;2.20;;;1.15;;
38224;SDS011;24025;48.138;11.428;2023-04-15T03:01:27;5.68;;;2.00;;
38224;SDS011;24025;48.138;11.428;2023-04-15T03:03:59;3.35;;;1.63;;
38224;SDS011;24025;48.138;11.428;2023-04-15T03:06:31;7.82;;;1.50;;
38224;SDS011;24025;48.138;11.428;2023-04-15T03:09:02;5.90;;;1.80;;
38224;SDS011;24025;48.138;11.428;2023-04-15T03:11:34;5.40;;;1.83;;
38224;SDS011;24025;48.138;11.428;2023-04-15T03:14:10;3.17;;;1.50;;
38224;SDS011;24025;48.138;11.428;2023-04-15T03:16:42;5.20;;;1.75;;
38224;SDS011;24025;48.138;11.428;2023-04-15T03:19:13;3.03;;;1.33;;
38224;SDS011;24025;48.138;11.428;2023-04-15T03:21:45;2.55;;;1.40;;
38224;SDS011;24025;48.138;11.428;2023-04-15T03:24:16;6.57;;;1.33;;
38224;SDS011;24025;48.138;11.428;2023-04-15T03:26:48;3.78;;;1.15;;
38224;SDS011;24025;48.138;11.428;2023-04-15T03:29:20;2.37;;;1.30;;
38224;SDS011;24025;48.138;11.428;2023-04-15T03:31:51;4.87;;;1.10;;
38224;SDS011;24025;48.138;11.428;2023-04-15T03:34:23;5.35;;;1.73;;
38224;SDS011;24025;48.138;11.428;2023-04-15T03:36:54;4.90;;;1.37;;
38224;SDS011;24025;48.138;11.428;2023-04-15T03:39:26;2.30;;;1.23;;
38224;SDS011;24025;48.138;11.428;2023-04-15T03:41:57;5.70;;;1.27;;
38224;SDS011;24025;48.138;11.428;2023-04-15T03:44:29;3.00;;;1.33;;
38224;SDS011;24025;48.138;11.428;2023-04-15T03:47:01;3.20;;;1.13;;
38224;SDS011;24025;48.138;11.428;2023-04-15T03:49:32;4.28;;;0.98;;
38224;SDS011;24025;48.138;11.428;2023-04-15T03:52:04;4.70;;;1.27;;
38224;SDS011;24025;48.138;11.428;2023-04-15T03:54:36;8.60;;;1.33;;
38224;SDS011;24025;48.138;11.428;2023-04-15T03:57:07;4.55;;;1.38;;
38224;SDS011;24025;48.138;11.428;2023-04-15T03:59:39;4.50;;;1.40;;
38224;SDS011;24025;48.138;11.428;2023-04-15T04:02:10;2.27;;;0.97;;
38224;SDS011;24025;48.138;11.428;2023-04-15T04:04:42;5.10;;;1.15;;
38224;SDS011;24025;48.138;11.428;2023-04-15T04:07:14;2.40;;;0.98;;
38224;SDS011;24025;48.138;11.428;2023-04-15T04:09:46;4.13;;;1.13;;
38224;SDS011;24025;48.138;11.428;2023-04-15T04:12:18;3.93;;;1.80;;
38224;SDS011;24025;48.138;11.428;2023-04-15T04:14:49;4.28;;;1.10;;
38224;SDS011;24025;48.138;11.428;2023-04-15T04:17:21;7.20;;;1.00;;
38224;SDS011;24025;48.138;11.428;2023-04-15T04:19:53;1.55;;;1.10;;
38224;SDS011;24025;48.138;11.428;2023-04-15T04:22:24;7.20;;;1.50;;
38224;SDS011;24025;48.138;11.428;2023-04-15T04:24:56;3.40;;;1.50;;
38224;SDS011;24025;48.138;11.428;2023-04-15T04:27:29;7.30;;;1.80;;
38224;SDS011;24025;48.138;11.428;2023-04-15T04:30:01;7.60;;;1.05;;
38224;SDS011;24025;48.138;11.428;2023-04-15T04:32:33;6.22;;;1.80;;
38224;SDS011;24025;48.138;11.428;2023-04-15T04:35:04;6.63;;;1.60;;
38224;SDS011;24025;48.138;11.428;2023-04-15T04:37:37;4.82;;;1.42;;
38224;SDS011;24025;48.138;11.428;2023-04-15T04:40:08;7.80;;;1.30;;
38224;SDS011;24025;48.138;11.428;2023-04-15T04:42:40;2.35;;;0.90;;
38224;SDS011;24025;48.138;11.428;2023-04-15T04:45:12;5.72;;;1.25;;
38224;SDS011;24025;48.138;11.428;2023-04-15T04:47:44;1.63;;;0.90;;
38224;SDS011;24025;48.138;11.428;2023-04-15T04:52:48;2.40;;;1.08;;
38224;SDS011;24025;48.138;11.428;2023-04-15T04:55:19;6.03;;;0.90;;
38224;SDS011;24025;48.138;11.428;2023-04-15T04:57:51;1.70;;;0.77;;
38224;SDS011;24025;48.138;11.428;2023-04-15T05:00:23;5.85;;;1.00;;
38224;SDS011;24025;48.138;11.428;2023-04-15T05:02:54;3.72;;;0.73;;
38224;SDS011;24025;48.138;11.428;2023-04-15T05:05:26;5.15;;;1.30;;
38224;SDS011;24025;48.138;11.428;2023-04-15T05:07:58;3.65;;;0.95;;
38224;SDS011;24025;48.138;11.428;2023-04-15T05:10:29;4.63;;;1.05;;
38224;SDS011;24025;48.138;11.428;2023-04-15T05:13:01;2.45;;;1.00;;
38224;SDS011;24025;48.138;11.428;2023-04-15T05:15:32;4.53;;;2.07;;
38224;SDS011;24025;48.138;11.428;2023-04-15T05:18:07;5.15;;;1.25;;
38224;SDS011;24025;48.138;11.428;2023-04-15T05:20:38;3.05;;;1.13;;
38224;SDS011;24025;48.138;11.428;2023-04-15T05:23:10;3.60;;;1.05;;
38224;SDS011;24025;48.138;11.428;2023-04-15T05:25:41;2.93;;;1.10;;
38224;SDS011;24025;48.138;11.428;2023-04-15T05:28:13;3.78;;;0.75;;
38224;SDS011;24025;48.138;11.428;2023-04-15T05:30:45;3.27;;;1.27;;
38224;SDS011;24025;48.138;11.428;2023-04-15T05:33:16;4.30;;;0.80;;
38224;SDS011;24025;48.138;11.428;2023-04-15T05:35:48;5.78;;;1.17;;
38224;SDS011;24025;48.138;11.428;2023-04-15T05:38:19;2.87;;;1.00;;
38224;SDS011;24025;48.138;11.428;2023-04-15T05:40:51;4.28;;;0.90;;
38224;SDS011;24025;48.138;11.428;2023-04-15T05:43:22;3.13;;;0.70;;
38224;SDS011;24025;48.138;11.428;2023-04-15T05:45:54;2.15;;;0.60;;
38224;SDS011;24025;48.138;11.428;2023-04-15T05:48:26;7.90;;;1.13;;
38224;SDS011;24025;48.138;11.428;2023-04-15T05:50:58;5.97;;;0.93;;
38224;SDS011;24025;48.138;11.428;2023-04-15T05:53:29;4.20;;;1.02;;
38224;SDS011;24025;48.138;11.428;2023-04-15T05:56:02;2.45;;;0.77;;
38224;SDS011;24025;48.138;11.428;2023-04-15T05:58:33;3.70;;;1.30;;
38224;SDS011;24025;48.138;11.428;2023-04-15T06:01:05;1.87;;;0.80;;
38224;SDS011;24025;48.138;11.428;2023-04-15T06:03:36;3.40;;;1.10;;
38224;SDS011;24025;48.138;11.428;2023-04-15T06:06:09;3.33;;;0.90;;
38224;SDS011;24025;48.138;11.428;2023-04-15T06:08:40;3.92;;;0.70;;
38224;SDS011;24025;48.138;11.428;2023-04-15T06:11:12;2.35;;;1.00;;
38224;SDS011;24025;48.138;11.428;2023-04-15T06:13:44;1.75;;;0.82;;
38224;SDS011;24025;48.138;11.428;2023-04-15T06:16:15;3.10;;;1.00;;
38224;SDS011;24025;48.138;11.428;2023-04-15T06:18:47;2.35;;;0.35;;
38224;SDS011;24025;48.138;11.428;2023-04-15T06:21:19;3.40;;;0.85;;
38224;SDS011;24025;48.138;11.428;2023-04-15T06:23:51;5.68;;;0.85;;
38224;SDS011;24025;48.138;11.428;2023-04-15T06:26:23;2.05;;;0.70;;
38224;SDS011;24025;48.138;11.428;2023-04-15T06:28:54;2.53;;;1.08;;
38224;SDS011;24025;48.138;11.428;2023-04-15T06:31:26;5.07;;;0.77;;
38224;SDS011;24025;48.138;11.428;2023-04-15T06:33:58;2.60;;;0.70;;
38224;SDS011;24025;48.138;11.428;2023-04-15T06:36:29;1.93;;;0.80;;
38224;SDS011;24025;48.138;11.428;2023-04-15T06:39:01;2.15;;;0.40;;
38224;SDS011;24025;48.138;11.428;2023-04-15T06:41:33;5.20;;;0.73;;
38224;SDS011;24025;48.138;11.428;2023-04-15T06:44:05;2.58;;;0.88;;
38224;SDS011;24025;48.138;11.428;2023-04-15T06:46:37;3.83;;;0.80;;
38224;SDS011;24025;48.138;11.428;2023-04-15T06:49:08;2.93;;;1.00;;
38224;SDS011;24025;48.138;11.428;2023-04-15T06:51:41;6.35;;;0.90;;
38224;SDS011;24025;48.138;11.428;2023-04-15T06:56:44;1.42;;;0.80;;
38224;SDS011;24025;48.138;11.428;2023-04-15T06:59:15;2.80;;;0.75;;
38224;SDS011;24025;48.138;11.428;2023-04-15T07:01:47;5.13;;;0.90;;
38224;SDS011;24025;48.138;11.428;2023-04-15T07:04:18;2.50;;;0.80;;
38224;SDS011;24025;48.138;11.428;2023-04-15T07:06:51;2.47;;;0.88;;
38224;SDS011;24025;48.138;11.428;2023-04-15T07:09:23;4.43;;;0.57;;
38224;SDS011;24025;48.138;11.428;2023-04-15T07:14:26;4.28;;;0.82;;
38224;SDS011;24025;48.138;11.428;2023-04-15T07:16:57;2.35;;;0.55;;
38224;SDS011;24025;48.138;11.428;2023-04-15T07:19:29;2.33;;;0.67;;
38224;SDS011;24025;48.138;11.428;2023-04-15T07:22:01;2.20;;;0.77;;
38224;SDS011;24025;48.138;11.428;2023-04-15T07:24:32;4.40;;;1.03;;
38224;SDS011;24025;48.138;11.428;2023-04-15T07:27:04;3.63;;;0.65;;
38224;SDS011;24025;48.138;11.428;2023-04-15T07:29:35;1.50;;;0.80;;
38224;SDS011;24025;48.138;11.428;2023-04-15T07:32:07;1.65;;;0.68;;
38224;SDS011;24025;48.138;11.428;2023-04-15T07:34:40;3.35;;;0.90;;
38224;SDS011;24025;48.138;11.428;2023-04-15T07:37:13;2.45;;;0.55;;
38224;SDS011;24025;48.138;11.428;2023-04-15T07:39:45;3.70;;;0.60;;
38224;SDS011;24025;48.138;11.428;2023-04-15T07:42:17;2.55;;;1.05;;
38224;SDS011;24025;48.138;11.428;2023-04-15T07:44:48;4.13;;;0.80;;
38224;SDS011;24025;48.138;11.428;2023-04-15T07:47:20;2.80;;;1.00;;
38224;SDS011;24025;48.138;11.428;2023-04-15T07:49:52;4.20;;;0.85;;
38224;SDS011;24025;48.138;11.428;2023-04-15T07:52:23;2.92;;;0.73;;
38224;SDS011;24025;48.138;11.428;2023-04-15T07:54:55;8.48;;;1.55;;
38224;SDS011;24025;48.138;11.428;2023-04-15T07:57:27;4.50;;;0.60;;
38224;SDS011;24025;48.138;11.428;2023-04-15T07:59:59;1.35;;;0.70;;
38224;SDS011;24025;48.138;11.428;2023-04-15T08:02:30;4.47;;;0.65;;
38224;SDS011;24025;48.138;11.428;2023-04-15T08:05:02;5.03;;;0.70;;
38224;SDS011;24025;48.138;11.428;2023-04-15T08:07:37;4.65;;;0.80;;
38224;SDS011;24025;48.138;11.428;2023-04-15T08:10:09;4.18;;;0.75;;
38224;SDS011;24025;48.138;11.428;2023-04-15T08:12:41;5.97;;;1.00;;
38224;SDS011;24025;48.138;11.428;2023-04-15T08:15:12;3.28;;;0.73;;
38224;SDS011;24025;48.138;11.428;2023-04-15T08:17:44;2.83;;;0.60;;
38224;SDS011;24025;48.138;11.428;2023-04-15T08:20:16;0.98;;;0.65;;
38224;SDS011;24025;48.138;11.428;2023-04-15T08:22:48;2.00;;;0.63;;
38224;SDS011;24025;48.138;11.428;2023-04-15T08:25:22;1.73;;;0.77;;
38224;SDS011;24025;48.138;11.428;2023-04-15T08:27:56;2.47;;;0.70;;
38224;SDS011;24025;48.138;11.428;2023-04-15T08:30:28;2.83;;;0.90;;
38224;SDS011;24025;48.138;11.428;2023-04-15T08:32:59;6.63;;;0.88;;
38224;SDS011;24025;48.138;11.428;2023-04-15T08:35:31;4.13;;;0.82;;
38224;SDS011;24025;48.138;11.428;2023-04-15T08:38:03;2.00;;;0.90;;
38224;SDS011;24025;48.138;11.428;2023-04-15T08:40:39;4.83;;;1.03;;
38224;SDS011;24025;48.138;11.428;2023-04-15T08:43:14;4.15;;;1.35;;
38224;SDS011;24025;48.138;11.428;2023-04-15T08:45:51;5.88;;;0.80;;
38224;SDS011;24025;48.138;11.428;2023-04-15T08:48:23;6.70;;;0.90;;
38224;SDS011;24025;48.138;11.428;2023-04-15T08:50:58;8.80;;;1.52;;
38224;SDS011;24025;48.138;11.428;2023-04-15T08:53:30;4.93;;;1.48;;
38224;SDS011;24025;48.138;11.428;2023-04-15T08:56:03;2.47;;;0.98;;
38224;SDS011;24025;48.138;11.428;2023-04-15T08:58:37;6.45;;;1.20;;
38224;SDS011;24025;48.138;11.428;2023-04-15T09:01:10;4.40;;;0.73;;
38224;SDS011;24025;48.138;11.428;2023-04-15T09:03:43;5.60;;;1.27;;
38224;SDS011;24025;48.138;11.428;2023-04-15T09:06:19;1.80;;;0.88;;
38224;SDS011;24025;48.138;11.428;2023-04-15T09:08:52;3.83;;;1.33;;
38224;SDS011;24025;48.138;11.428;2023-04-15T09:11:23;3.92;;;1.17;;
38224;SDS011;24025;48.138;11.428;2023-04-15T09:13:55;4.60;;;1.73;;
38224;SDS011;24025;48.138;11.428;2023-04-15T09:16:27;3.38;;;1.27;;
38224;SDS011;24025;48.138;11.428;2023-04-15T09:18:59;2.58;;;1.25;;
38224;SDS011;24025;48.138;11.428;2023-04-15T09:21:31;4.95;;;1.58;;
38224;SDS011;24025;48.138;11.428;2023-04-15T09:24:02;4.25;;;1.33;;
38224;SDS011;24025;48.138;11.428;2023-04-15T09:26:37;4.50;;;1.33;;
38224;SDS011;24025;48.138;11.428;2023-04-15T09:29:10;4.90;;;1.45;;
38224;SDS011;24025;48.138;11.428;2023-04-15T09:31:45;5.25;;;1.63;;
38224;SDS011;24025;48.138;11.428;2023-04-15T09:34:17;3.92;;;1.30;;
38224;SDS011;24025;48.138;11.428;2023-04-15T09:39:21;9.98;;;3.95;;
38224;SDS011;24025;48.138;11.428;2023-04-15T09:42:03;7.25;;;2.03;;
38224;SDS011;24025;48.138;11.428;2023-04-15T09:44:36;2.90;;;1.20;;
38224;SDS011;24025;48.138;11.428;2023-04-15T09:47:07;3.90;;;1.55;;
38224;SDS011;24025;48.138;11.428;2023-04-15T09:49:45;3.35;;;1.60;;
38224;SDS011;24025;48.138;11.428;2023-04-15T09:52:25;3.58;;;1.73;;
38224;SDS011;24025;48.138;11.428;2023-04-15T09:54:57;4.55;;;1.30;;
38224;SDS011;24025;48.138;11.428;2023-04-15T09:57:36;6.38;;;1.83;;
38224;SDS011;24025;48.138;11.428;2023-04-15T10:00:08;3.60;;;1.70;;
38224;SDS011;24025;48.138;11.428;2023-04-15T10:02:41;5.43;;;1.65;;
38224;SDS011;24025;48.138;11.428;2023-04-15T10:05:14;3.80;;;1.48;;
38224;SDS011;24025;48.138;11.428;2023-04-15T10:07:47;3.90;;;1.50;;
38224;SDS011;24025;48.138;11.428;2023-04-15T10:10:20;4.30;;;1.48;;
38224;SDS011;24025;48.138;11.428;2023-04-15T10:12:52;4.63;;;1.60;;
38224;SDS011;24025;48.138;11.428;2023-04-15T10:15:26;5.15;;;1.63;;
38224;SDS011;24025;48.138;11.428;2023-04-15T10:18:02;2.47;;;1.30;;
38224;SDS011;24025;48.138;11.428;2023-04-15T10:20:35;3.53;;;1.40;;
38224;SDS011;24025;48.138;11.428;2023-04-15T10:23:08;1.75;;;1.15;;
38224;SDS011;24025;48.138;11.428;2023-04-15T10:25:44;4.93;;;2.55;;
38224;SDS011;24025;48.138;11.428;2023-04-15T10:28:17;2.63;;;1.45;;
38224;SDS011;24025;48.138;11.428;2023-04-15T10:30:50;6.13;;;1.77;;
38224;SDS011;24025;48.138;11.428;2023-04-15T10:33:23;2.90;;;1.52;;
38224;SDS011;24025;48.138;11.428;2023-04-15T10:35:55;4.55;;;2.15;;
38224;SDS011;24025;48.138;11.428;2023-04-15T10:38:41;3.35;;;1.60;;
38224;SDS011;24025;48.138;11.428;2023-04-15T10:46:44;6.18;;;1.58;;
38224;SDS011;24025;48.138;11.428;2023-04-15T10:49:16;5.60;;;1.30;;
38224;SDS011;24025;48.138;11.428;2023-04-15T10:51:58;5.63;;;1.77;;
38224;SDS011;24025;48.138;11.428;2023-04-15T10:54:31;4.82;;;1.63;;
38224;SDS011;24025;48.138;11.428;2023-04-15T10:57:07;5.07;;;1.98;;
38224;SDS011;24025;48.138;11.428;2023-04-15T11:00:09;4.13;;;1.90;;
38224;SDS011;24025;48.138;11.428;2023-04-15T11:02:55;5.30;;;2.10;;
38224;SDS011;24025;48.138;11.428;2023-04-15T11:05:49;6.22;;;1.75;;
38224;SDS011;24025;48.138;11.428;2023-04-15T11:08:21;4.20;;;1.75;;
38224;SDS011;24025;48.138;11.428;2023-04-15T11:14:41;4.93;;;1.92;;
38224;SDS011;24025;48.138;11.428;2023-04-15T11:17:14;3.22;;;1.88;;
38224;SDS011;24025;48.138;11.428;2023-04-15T11:19:58;3.58;;;1.80;;
38224;SDS011;24025;48.138;11.428;2023-04-15T11:22:30;2.95;;;1.92;;
38224;SDS011;24025;48.138;11.428;2023-04-15T11:25:02;8.60;;;2.00;;
38224;SDS011;24025;48.138;11.428;2023-04-15T11:27:35;5.57;;;1.77;;
38224;SDS011;24025;48.138;11.428;2023-04-15T11:30:20;3.47;;;1.67;;
38224;SDS011;24025;48.138;11.428;2023-04-15T11:32:57;4.60;;;1.92;;
38224;SDS011;24025;48.138;11.428;2023-04-15T11:35:34;4.05;;;1.77;;
38224;SDS011;24025;48.138;11.428;2023-04-15T11:38:10;4.22;;;1.65;;
38224;SDS011;24025;48.138;11.428;2023-04-15T11:40:44;4.40;;;1.90;;
38224;SDS011;24025;48.138;11.428;2023-04-15T11:43:21;8.40;;;1.90;;
38224;SDS011;24025;48.138;11.428;2023-04-15T11:45:56;2.15;;;1.63;;
38224;SDS011;24025;48.138;11.428;2023-04-15T11:48:32;2.90;;;1.90;;
38224;SDS011;24025;48.138;11.428;2023-04-15T11:51:06;5.88;;;2.13;;
38224;SDS011;24025;48.138;11.428;2023-04-15T11:56:10;4.43;;;1.75;;
38224;SDS011;24025;48.138;11.428;2023-04-15T11:58:53;3.38;;;1.85;;
38224;SDS011;24025;48.138;11.428;2023-04-15T12:01:37;7.88;;;2.67;;
38224;SDS011;24025;48.138;11.428;2023-04-15T12:04:17;8.45;;;2.10;;
38224;SDS011;24025;48.138;11.428;2023-04-15T12:06:56;3.30;;;2.17;;
38224;SDS011;24025;48.138;11.428;2023-04-15T12:09:38;6.20;;;2.00;;
38224;SDS011;24025;48.138;11.428;2023-04-15T12:12:10;5.07;;;2.15;;
38224;SDS011;24025;48.138;11.428;2023-04-15T12:14:42;5.47;;;1.95;;
38224;SDS011;24025;48.138;11.428;2023-04-15T12:17:14;5.05;;;2.50;;
38224;SDS011;24025;48.138;11.428;2023-04-15T12:19:46;6.93;;;3.30;;
38224;SDS011;24025;48.138;11.428;2023-04-15T12:22:20;5.82;;;3.35;;
38224;SDS011;24025;48.138;11.428;2023-04-15T12:24:53;4.82;;;2.67;;
38224;SDS011;24025;48.138;11.428;2023-04-15T12:27:27;3.88;;;2.67;;
38224;SDS011;24025;48.138;11.428;2023-04-15T12:30:03;5.63;;;2.70;;
38224;SDS011;24025;48.138;11.428;2023-04-15T12:32:35;3.97;;;2.63;;
38224;SDS011;24025;48.138;11.428;2023-04-15T12:35:07;4.97;;;1.90;;
38224;SDS011;24025;48.138;11.428;2023-04-15T12:37:39;4.72;;;1.90;;
38224;SDS011;24025;48.138;11.428;2023-04-15T12:40:11;5.93;;;1.67;;
38224;SDS011;24025;48.138;11.428;2023-04-15T12:42:43;2.22;;;1.60;;
38224;SDS011;24025;48.138;11.428;2023-04-15T12:45:14;2.97;;;1.75;;
38224;SDS011;24025;48.138;11.428;2023-04-15T12:47:46;4.77;;;1.80;;
38224;SDS011;24025;48.138;11.428;2023-04-15T12:50:17;3.33;;;1.60;;
38224;SDS011;24025;48.138;11.428;2023-04-15T12:52:49;2.55;;;1.65;;
38224;SDS011;24025;48.138;11.428;2023-04-15T12:55:21;2.65;;;1.80;;
38224;SDS011;24025;48.138;11.428;2023-04-15T12:57:52;1.88;;;1.30;;
38224;SDS011;24025;48.138;11.428;2023-04-15T13:00:24;4.20;;;1.75;;
38224;SDS011;24025;48.138;11.428;2023-04-15T13:02:55;6.32;;;1.83;;
38224;SDS011;24025;48.138;11.428;2023-04-15T13:05:27;8.23;;;1.48;;
38224;SDS011;24025;48.138;11.428;2023-04-15T13:07:59;2.70;;;1.70;;
38224;SDS011;24025;48.138;11.428;2023-04-15T13:10:31;3.03;;;0.77;;
38224;SDS011;24025;48.138;11.428;2023-04-15T13:13:03;1.40;;;1.02;;
38224;SDS011;24025;48.138;11.428;2023-04-15T13:15:35;9.88;;;1.25;;
38224;SDS011;24025;48.138;11.428;2023-04-15T13:18:07;2.78;;;1.25;;
38224;SDS011;24025;48.138;11.428;2023-04-15T13:20:38;3.58;;;1.20;;
38224;SDS011;24025;48.138;11.428;2023-04-15T13:23:10;5.82;;;1.50;;
38224;SDS011;24025;48.138;11.428;2023-04-15T13:25:42;3.97;;;1.42;;
38224;SDS011;24025;48.138;11.428;2023-04-15T13:28:14;3.08;;;1.27;;
38224;SDS011;24025;48.138;11.428;2023-04-15T13:30:45;3.17;;;1.73;;
38224;SDS011;24025;48.138;11.428;2023-04-15T13:33:18;2.72;;;1.48;;
38224;SDS011;24025;48.138;11.428;2023-04-15T13:35:50;4.22;;;1.50;;
38224;SDS011;24025;48.138;11.428;2023-04-15T13:38:23;3.42;;;1.55;;
38224;SDS011;24025;48.138;11.428;2023-04-15T13:40:55;5.43;;;2.00;;
38224;SDS011;24025;48.138;11.428;2023-04-15T13:43:27;4.03;;;1.60;;
38224;SDS011;24025;48.138;11.428;2023-04-15T13:45:58;4.25;;;2.40;;
38224;SDS011;24025;48.138;11.428;2023-04-15T13:48:32;2.75;;;1.90;;
38224;SDS011;24025;48.138;11.428;2023-04-15T13:51:04;3.53;;;1.93;;
38224;SDS011;24025;48.138;11.428;2023-04-15T13:53:35;5.07;;;2.33;;
38224;SDS011;24025;48.138;11.428;2023-04-15T13:56:09;4.40;;;2.20;;
38224;SDS011;24025;48.138;11.428;2023-04-15T13:58:41;4.60;;;1.95;;
38224;SDS011;24025;48.138;11.428;2023-04-15T14:01:12;3.25;;;1.55;;
38224;SDS011;24025;48.138;11.428;2023-04-15T14:03:44;2.90;;;1.70;;
38224;SDS011;24025;48.138;11.428;2023-04-15T14:06:16;3.20;;;1.95;;
38224;SDS011;24025;48.138;11.428;2023-04-15T14:08:48;3.95;;;1.75;;
38224;SDS011;24025;48.138;11.428;2023-04-15T14:11:19;3.50;;;1.83;;
38224;SDS011;24025;48.138;11.428;2023-04-15T14:13:51;6.20;;;1.52;;
38224;SDS011;24025;48.138;11.428;2023-04-15T14:16:22;3.55;;;1.75;;
38224;SDS011;24025;48.138;11.428;2023-04-15T14:18:54;5.68;;;2.25;;
38224;SDS011;24025;48.138;11.428;2023-04-15T14:21:26;4.18;;;1.73;;
38224;SDS011;24025;48.138;11.428;2023-04-15T14:24:02;4.03;;;1.75;;
38224;SDS011;24025;48.138;11.428;2023-04-15T14:26:33;2.67;;;1.70;;
38224;SDS011;24025;48.138;11.428;2023-04-15T14:29:05;2.15;;;1.45;;
38224;SDS011;24025;48.138;11.428;2023-04-15T14:31:37;2.77;;;1.60;;
38224;SDS011;24025;48.138;11.428;2023-04-15T14:34:11;3.95;;;1.70;;
38224;SDS011;24025;48.138;11.428;2023-04-15T14:36:43;4.95;;;1.42;;
38224;SDS011;24025;48.138;11.428;2023-04-15T14:39:14;4.75;;;1.10;;
38224;SDS011;24025;48.138;11.428;2023-04-15T14:41:46;1.80;;;1.23;;
38224;SDS011;24025;48.138;11.428;2023-04-15T14:44:17;3.10;;;1.38;;
38224;SDS011;24025;48.138;11.428;2023-04-15T14:46:50;3.15;;;1.70;;
38224;SDS011;24025;48.138;11.428;2023-04-15T14:51:53;1.80;;;1.13;;
38224;SDS011;24025;48.138;11.428;2023-04-15T14:54:25;3.80;;;1.30;;
38224;SDS011;24025;48.138;11.428;2023-04-15T14:56:56;3.10;;;1.20;;
38224;SDS011;24025;48.138;11.428;2023-04-15T14:59:28;3.20;;;1.45;;
38224;SDS011;24025;48.138;11.428;2023-04-15T15:01:59;5.37;;;1.60;;
38224;SDS011;24025;48.138;11.428;2023-04-15T15:04:31;2.25;;;1.38;;
38224;SDS011;24025;48.138;11.428;2023-04-15T15:07:03;5.03;;;1.95;;
38224;SDS011;24025;48.138;11.428;2023-04-15T15:09:35;8.05;;;2.03;;
38224;SDS011;24025;48.138;11.428;2023-04-15T15:12:06;5.80;;;2.30;;
38224;SDS011;24025;48.138;11.428;2023-04-15T15:14:38;3.90;;;1.95;;
38224;SDS011;24025;48.138;11.428;2023-04-15T15:17:09;4.33;;;1.90;;
38224;SDS011;24025;48.138;11.428;2023-04-15T15:19:41;2.58;;;1.80;;
38224;SDS011;24025;48.138;11.428;2023-04-15T15:22:13;3.88;;;1.58;;
38224;SDS011;24025;48.138;11.428;2023-04-15T15:24:44;7.57;;;2.57;;
38224;SDS011;24025;48.138;11.428;2023-04-15T15:27:15;5.30;;;2.30;;
38224;SDS011;24025;48.138;11.428;2023-04-15T15:29:47;4.68;;;2.53;;
38224;SDS011;24025;48.138;11.428;2023-04-15T15:32:19;3.17;;;1.97;;